Pagina principală
METAR-TAF:

METAR-TAF

Aeroporturi :

Chaitén, Chile

Latitudine: 42-55-58S, longitudine: 072-41-58W, elevație: 4 m

Observații meteo curente

Raportul a fost făcut în urmă cu 55 de minute, la 09:00 UTC
Vânt 8 kt de la Nord/Nord-vest
Temperatură 11°C
Umiditate 82%
Presiune 1012 hPa
Vizibilitate de 10 km sau mai mult
Nori puțini la o înălțime de 4800 picior

METAR: SCTN 280900Z AUTO 34008KT 9999 FEW048 11/08 Q1012

Ora: 05:55 (09:55 UTC)


TAF: lipsă

Observații și prognoze meteo pentru peste 4.000 de aeroporturi (rapoarte METAR și TAF).

Stațiile disponibile sunt reprezentate pe hartă prin puncte galbene și roșii.

Țineți indicatorul mouse-ului pe punctul dorit pentru a vedea denumirea stației.

Apoi, faceți clic pentru a vedea observațiile și prognozele meteorologice.

Pentru a schimba harta: Pentru mărire, faceți clic pe butoanele verzi cu cruce neagră; pentru micșorare, pe butonul verde cu o liniuță; pentru hărți învecinate, pe săgețile verzi.


METAR-TAF: